sensor_id;sensor_type;location;lat;lon;timestamp;P1;durP1;ratioP1;P2;durP2;ratioP2
75704;SDS011;70013;44.726;37.760;2023-05-10T10:08:34;31.55;;;8.35;;
75704;SDS011;70013;44.726;37.760;2023-05-10T10:09:35;63.30;;;9.23;;
75704;SDS011;70013;44.726;37.760;2023-05-10T10:10:37;24.08;;;1.80;;
75704;SDS011;70013;44.726;37.760;2023-05-10T10:11:43;12.00;;;1.58;;
75704;SDS011;70013;44.726;37.760;2023-05-10T10:12:45;14.13;;;1.30;;
75704;SDS011;70013;44.726;37.760;2023-05-10T10:13:47;16.80;;;1.98;;
75704;SDS011;70013;44.726;37.760;2023-05-10T10:14:49;4.70;;;1.40;;
75704;SDS011;70013;44.726;37.760;2023-05-10T10:15:53;7.93;;;1.50;;
75704;SDS011;70013;44.726;37.760;2023-05-10T10:16:55;9.65;;;1.88;;
75704;SDS011;70013;44.726;37.760;2023-05-10T10:17:57;5.13;;;1.10;;
75704;SDS011;70013;44.726;37.760;2023-05-10T10:18:59;6.65;;;1.25;;
75704;SDS011;70013;44.726;37.760;2023-05-10T10:20:02;5.53;;;1.20;;
75704;SDS011;70013;44.726;37.760;2023-05-10T10:21:05;3.38;;;1.13;;
75704;SDS011;70013;44.726;37.760;2023-05-10T10:22:09;4.47;;;1.00;;
75704;SDS011;70013;44.726;37.760;2023-05-10T10:23:13;4.25;;;1.20;;
75704;SDS011;70013;44.726;37.760;2023-05-10T10:24:15;7.18;;;0.90;;
75704;SDS011;70013;44.726;37.760;2023-05-10T10:25:18;6.80;;;1.20;;
75704;SDS011;70013;44.726;37.760;2023-05-10T10:26:23;4.97;;;0.88;;
75704;SDS011;70013;44.726;37.760;2023-05-10T10:28:08;3.60;;;1.20;;
75704;SDS011;70013;44.726;37.760;2023-05-10T10:30:31;6.10;;;1.10;;
75704;SDS011;70013;44.726;37.760;2023-05-10T10:34:29;4.18;;;1.13;;
75704;SDS011;70013;44.726;37.760;2023-05-10T10:35:32;3.15;;;0.90;;
75704;SDS011;70013;44.726;37.760;2023-05-10T10:36:45;16.45;;;7.93;;
75704;SDS011;70013;44.726;37.760;2023-05-10T10:39:55;23.95;;;14.38;;
75704;SDS011;70013;44.726;37.760;2023-05-10T10:41:10;16.38;;;9.75;;
75704;SDS011;70013;44.726;37.760;2023-05-10T10:42:46;14.60;;;7.30;;
75704;SDS011;70013;44.726;37.760;2023-05-10T10:43:55;7.25;;;4.35;;
75704;SDS011;70013;44.726;37.760;2023-05-10T10:45:27;7.72;;;2.97;;
75704;SDS011;70013;44.726;37.760;2023-05-10T10:46:28;4.97;;;2.65;;
75704;SDS011;70013;44.726;37.760;2023-05-10T10:47:30;5.53;;;1.70;;
75704;SDS011;70013;44.726;37.760;2023-05-10T10:48:34;6.03;;;1.85;;
75704;SDS011;70013;44.726;37.760;2023-05-10T10:50:44;6.53;;;1.40;;
75704;SDS011;70013;44.726;37.760;2023-05-10T10:53:25;6.22;;;1.33;;
75704;SDS011;70013;44.726;37.760;2023-05-10T10:54:29;5.15;;;1.35;;
75704;SDS011;70013;44.726;37.760;2023-05-10T10:55:30;4.40;;;1.27;;
75704;SDS011;70013;44.726;37.760;2023-05-10T10:56:32;7.55;;;1.33;;
75704;SDS011;70013;44.726;37.760;2023-05-10T10:57:45;5.45;;;1.13;;
75704;SDS011;70013;44.726;37.760;2023-05-10T10:58:51;5.03;;;1.25;;
75704;SDS011;70013;44.726;37.760;2023-05-10T11:00:39;8.77;;;1.20;;
75704;SDS011;70013;44.726;37.760;2023-05-10T11:01:24;3.88;;;0.93;;
75704;SDS011;70013;44.726;37.760;2023-05-10T11:06:35;3.22;;;0.80;;
75704;SDS011;70013;44.726;37.760;2023-05-10T11:07:37;2.28;;;1.10;;
75704;SDS011;70013;44.726;37.760;2023-05-10T11:08:56;5.60;;;2.60;;
75704;SDS011;70013;44.726;37.760;2023-05-10T11:10:03;5.97;;;1.60;;
75704;SDS011;70013;44.726;37.760;2023-05-10T11:11:06;5.38;;;2.78;;
75704;SDS011;70013;44.726;37.760;2023-05-10T11:12:08;10.40;;;2.40;;
75704;SDS011;70013;44.726;37.760;2023-05-10T11:13:10;9.77;;;4.00;;
75704;SDS011;70013;44.726;37.760;2023-05-10T11:14:12;7.43;;;2.28;;
75704;SDS011;70013;44.726;37.760;2023-05-10T11:15:13;7.10;;;2.28;;
75704;SDS011;70013;44.726;37.760;2023-05-10T11:16:19;6.85;;;2.08;;
75704;SDS011;70013;44.726;37.760;2023-05-10T11:17:22;5.40;;;1.83;;
75704;SDS011;70013;44.726;37.760;2023-05-10T11:18:29;7.93;;;1.70;;
75704;SDS011;70013;44.726;37.760;2023-05-10T11:19:31;4.70;;;1.30;;
75704;SDS011;70013;44.726;37.760;2023-05-10T11:20:39;5.38;;;1.65;;
75704;SDS011;70013;44.726;37.760;2023-05-10T11:21:45;6.22;;;1.48;;
75704;SDS011;70013;44.726;37.760;2023-05-10T11:22:49;5.20;;;1.50;;
75704;SDS011;70013;44.726;37.760;2023-05-10T11:23:55;9.15;;;1.30;;
75704;SDS011;70013;44.726;37.760;2023-05-10T11:24:58;2.97;;;1.40;;
75704;SDS011;70013;44.726;37.760;2023-05-10T11:26:00;5.95;;;1.73;;
75704;SDS011;70013;44.726;37.760;2023-05-10T11:27:06;7.05;;;1.65;;
75704;SDS011;70013;44.726;37.760;2023-05-10T11:28:08;5.90;;;1.80;;
75704;SDS011;70013;44.726;37.760;2023-05-10T11:29:12;4.63;;;1.95;;
75704;SDS011;70013;44.726;37.760;2023-05-10T11:30:14;6.15;;;2.90;;
75704;SDS011;70013;44.726;37.760;2023-05-10T11:31:16;25.92;;;12.15;;
75704;SDS011;70013;44.726;37.760;2023-05-10T11:32:19;25.08;;;11.73;;
75704;SDS011;70013;44.726;37.760;2023-05-10T11:33:21;25.63;;;11.18;;
75704;SDS011;70013;44.726;37.760;2023-05-10T11:34:26;42.17;;;21.48;;
75704;SDS011;70013;44.726;37.760;2023-05-10T11:35:31;27.52;;;14.40;;
75704;SDS011;70013;44.726;37.760;2023-05-10T11:36:39;21.23;;;10.45;;
75704;SDS011;70013;44.726;37.760;2023-05-10T11:37:41;15.35;;;7.60;;
75704;SDS011;70013;44.726;37.760;2023-05-10T11:38:45;11.30;;;6.03;;
75704;SDS011;70013;44.726;37.760;2023-05-10T11:39:47;12.55;;;5.78;;
75704;SDS011;70013;44.726;37.760;2023-05-10T11:40:50;9.60;;;3.70;;
75704;SDS011;70013;44.726;37.760;2023-05-10T11:41:56;7.90;;;3.15;;
75704;SDS011;70013;44.726;37.760;2023-05-10T11:42:59;5.50;;;2.38;;
75704;SDS011;70013;44.726;37.760;2023-05-10T11:44:01;3.97;;;2.08;;
75704;SDS011;70013;44.726;37.760;2023-05-10T11:45:03;7.30;;;1.98;;
75704;SDS011;70013;44.726;37.760;2023-05-10T11:46:10;5.65;;;2.05;;
75704;SDS011;70013;44.726;37.760;2023-05-10T11:47:12;5.60;;;1.63;;
75704;SDS011;70013;44.726;37.760;2023-05-10T11:48:14;10.35;;;2.13;;
75704;SDS011;70013;44.726;37.760;2023-05-10T11:49:17;7.72;;;2.10;;
75704;SDS011;70013;44.726;37.760;2023-05-10T11:50:19;4.63;;;1.70;;
75704;SDS011;70013;44.726;37.760;2023-05-10T11:51:24;4.82;;;1.95;;
75704;SDS011;70013;44.726;37.760;2023-05-10T11:52:26;5.95;;;1.63;;
75704;SDS011;70013;44.726;37.760;2023-05-10T11:53:29;7.30;;;1.50;;
75704;SDS011;70013;44.726;37.760;2023-05-10T11:54:32;11.30;;;1.75;;
75704;SDS011;70013;44.726;37.760;2023-05-10T11:55:35;3.80;;;1.40;;
75704;SDS011;70013;44.726;37.760;2023-05-10T11:56:37;6.45;;;1.38;;
75704;SDS011;70013;44.726;37.760;2023-05-10T11:57:40;6.68;;;1.50;;
75704;SDS011;70013;44.726;37.760;2023-05-10T11:58:43;2.17;;;1.30;;
75704;SDS011;70013;44.726;37.760;2023-05-10T11:59:52;5.78;;;1.77;;
75704;SDS011;70013;44.726;37.760;2023-05-10T12:00:55;5.13;;;1.60;;
75704;SDS011;70013;44.726;37.760;2023-05-10T12:01:58;4.40;;;1.30;;
75704;SDS011;70013;44.726;37.760;2023-05-10T12:03:00;6.18;;;1.70;;
75704;SDS011;70013;44.726;37.760;2023-05-10T12:04:02;9.98;;;1.70;;
75704;SDS011;70013;44.726;37.760;2023-05-10T12:05:04;7.88;;;1.92;;
75704;SDS011;70013;44.726;37.760;2023-05-10T12:06:07;6.45;;;1.45;;
75704;SDS011;70013;44.726;37.760;2023-05-10T12:07:09;7.22;;;1.40;;
75704;SDS011;70013;44.726;37.760;2023-05-10T12:08:11;2.63;;;1.35;;
75704;SDS011;70013;44.726;37.760;2023-05-10T12:09:14;4.55;;;1.70;;
75704;SDS011;70013;44.726;37.760;2023-05-10T12:10:16;9.50;;;1.42;;
75704;SDS011;70013;44.726;37.760;2023-05-10T12:11:26;7.28;;;1.38;;
75704;SDS011;70013;44.726;37.760;2023-05-10T12:12:39;4.70;;;1.48;;
75704;SDS011;70013;44.726;37.760;2023-05-10T12:13:43;6.78;;;1.52;;
75704;SDS011;70013;44.726;37.760;2023-05-10T12:14:51;8.77;;;1.75;;
75704;SDS011;70013;44.726;37.760;2023-05-10T12:15:52;3.97;;;1.50;;
75704;SDS011;70013;44.726;37.760;2023-05-10T12:16:56;5.32;;;1.50;;
75704;SDS011;70013;44.726;37.760;2023-05-10T12:17:58;3.38;;;1.40;;
75704;SDS011;70013;44.726;37.760;2023-05-10T12:19:00;7.70;;;1.40;;
75704;SDS011;70013;44.726;37.760;2023-05-10T12:20:21;5.90;;;1.40;;
75704;SDS011;70013;44.726;37.760;2023-05-10T12:21:29;4.68;;;1.50;;
75704;SDS011;70013;44.726;37.760;2023-05-10T12:22:33;8.50;;;1.70;;
75704;SDS011;70013;44.726;37.760;2023-05-10T12:23:35;6.68;;;1.50;;
75704;SDS011;70013;44.726;37.760;2023-05-10T12:24:37;6.68;;;1.33;;
75704;SDS011;70013;44.726;37.760;2023-05-10T12:25:39;4.50;;;1.35;;
75704;SDS011;70013;44.726;37.760;2023-05-10T12:26:41;6.82;;;1.65;;
75704;SDS011;70013;44.726;37.760;2023-05-10T12:27:50;5.10;;;1.50;;
75704;SDS011;70013;44.726;37.760;2023-05-10T12:28:53;9.90;;;1.40;;
75704;SDS011;70013;44.726;37.760;2023-05-10T12:29:55;6.18;;;1.48;;
75704;SDS011;70013;44.726;37.760;2023-05-10T12:31:00;9.02;;;1.35;;
75704;SDS011;70013;44.726;37.760;2023-05-10T12:32:02;5.90;;;1.20;;
75704;SDS011;70013;44.726;37.760;2023-05-10T12:33:11;3.40;;;1.40;;
75704;SDS011;70013;44.726;37.760;2023-05-10T12:35:29;5.30;;;1.50;;
75704;SDS011;70013;44.726;37.760;2023-05-10T12:36:32;4.10;;;1.40;;
75704;SDS011;70013;44.726;37.760;2023-05-10T12:37:34;8.93;;;2.17;;
75704;SDS011;70013;44.726;37.760;2023-05-10T12:38:43;4.25;;;1.40;;
75704;SDS011;70013;44.726;37.760;2023-05-10T12:39:48;9.32;;;1.45;;
75704;SDS011;70013;44.726;37.760;2023-05-10T12:40:50;3.95;;;1.38;;
75704;SDS011;70013;44.726;37.760;2023-05-10T12:41:52;6.65;;;1.63;;
75704;SDS011;70013;44.726;37.760;2023-05-10T12:42:54;10.88;;;1.45;;
75704;SDS011;70013;44.726;37.760;2023-05-10T12:43:55;8.07;;;1.52;;
75704;SDS011;70013;44.726;37.760;2023-05-10T12:44:57;6.53;;;1.70;;
75704;SDS011;70013;44.726;37.760;2023-05-10T12:46:03;8.38;;;1.45;;
75704;SDS011;70013;44.726;37.760;2023-05-10T12:47:12;8.27;;;1.65;;
75704;SDS011;70013;44.726;37.760;2023-05-10T12:48:14;5.40;;;1.55;;
75704;SDS011;70013;44.726;37.760;2023-05-10T12:49:16;7.40;;;1.70;;
75704;SDS011;70013;44.726;37.760;2023-05-10T12:50:20;3.55;;;1.40;;
75704;SDS011;70013;44.726;37.760;2023-05-10T12:51:21;4.63;;;1.60;;
75704;SDS011;70013;44.726;37.760;2023-05-10T12:52:24;13.18;;;1.52;;
75704;SDS011;70013;44.726;37.760;2023-05-10T12:53:27;5.50;;;1.45;;
75704;SDS011;70013;44.726;37.760;2023-05-10T12:54:28;7.22;;;1.75;;
75704;SDS011;70013;44.726;37.760;2023-05-10T12:55:30;7.05;;;1.65;;
75704;SDS011;70013;44.726;37.760;2023-05-10T12:56:32;5.72;;;1.50;;
75704;SDS011;70013;44.726;37.760;2023-05-10T12:57:33;4.38;;;1.52;;
75704;SDS011;70013;44.726;37.760;2023-05-10T12:58:35;5.25;;;1.33;;
75704;SDS011;70013;44.726;37.760;2023-05-10T12:59:36;5.32;;;1.67;;
75704;SDS011;70013;44.726;37.760;2023-05-10T13:00:38;7.47;;;1.27;;
75704;SDS011;70013;44.726;37.760;2023-05-10T13:01:40;2.33;;;1.30;;
75704;SDS011;70013;44.726;37.760;2023-05-10T13:02:42;6.05;;;1.20;;
75704;SDS011;70013;44.726;37.760;2023-05-10T13:03:43;2.55;;;1.40;;
75704;SDS011;70013;44.726;37.760;2023-05-10T13:04:45;5.63;;;1.90;;
75704;SDS011;70013;44.726;37.760;2023-05-10T13:05:47;5.60;;;1.30;;
75704;SDS011;70013;44.726;37.760;2023-05-10T13:06:49;6.03;;;1.33;;
75704;SDS011;70013;44.726;37.760;2023-05-10T13:07:51;1.92;;;1.10;;
75704;SDS011;70013;44.726;37.760;2023-05-10T13:08:52;4.70;;;1.30;;
75704;SDS011;70013;44.726;37.760;2023-05-10T13:09:54;7.43;;;1.65;;
75704;SDS011;70013;44.726;37.760;2023-05-10T13:10:55;5.15;;;1.58;;
75704;SDS011;70013;44.726;37.760;2023-05-10T13:11:57;6.00;;;1.50;;
75704;SDS011;70013;44.726;37.760;2023-05-10T13:12:59;3.97;;;1.50;;
75704;SDS011;70013;44.726;37.760;2023-05-10T13:14:00;6.43;;;1.45;;
75704;SDS011;70013;44.726;37.760;2023-05-10T13:15:04;3.80;;;1.20;;
75704;SDS011;70013;44.726;37.760;2023-05-10T13:16:06;4.57;;;1.23;;
75704;SDS011;70013;44.726;37.760;2023-05-10T13:17:08;6.35;;;1.40;;
75704;SDS011;70013;44.726;37.760;2023-05-10T13:18:09;4.65;;;1.30;;
75704;SDS011;70013;44.726;37.760;2023-05-10T13:19:12;1.90;;;1.10;;
75704;SDS011;70013;44.726;37.760;2023-05-10T13:20:14;6.15;;;1.40;;
75704;SDS011;70013;44.726;37.760;2023-05-10T13:21:16;5.00;;;1.10;;
75704;SDS011;70013;44.726;37.760;2023-05-10T13:22:17;6.82;;;1.67;;
75704;SDS011;70013;44.726;37.760;2023-05-10T13:23:19;3.83;;;1.20;;
75704;SDS011;70013;44.726;37.760;2023-05-10T13:24:21;4.53;;;1.50;;
75704;SDS011;70013;44.726;37.760;2023-05-10T13:25:23;8.55;;;1.40;;
75704;SDS011;70013;44.726;37.760;2023-05-10T13:26:25;3.30;;;1.23;;
75704;SDS011;70013;44.726;37.760;2023-05-10T13:27:27;4.13;;;1.35;;
75704;SDS011;70013;44.726;37.760;2023-05-10T13:28:29;10.00;;;1.80;;
75704;SDS011;70013;44.726;37.760;2023-05-10T13:29:31;3.58;;;1.33;;
75704;SDS011;70013;44.726;37.760;2023-05-10T13:30:32;5.18;;;1.33;;
75704;SDS011;70013;44.726;37.760;2023-05-10T13:31:34;6.10;;;1.20;;
75704;SDS011;70013;44.726;37.760;2023-05-10T13:32:36;5.53;;;1.65;;
75704;SDS011;70013;44.726;37.760;2023-05-10T13:33:38;4.15;;;1.20;;
75704;SDS011;70013;44.726;37.760;2023-05-10T13:34:40;11.35;;;1.50;;
75704;SDS011;70013;44.726;37.760;2023-05-10T13:35:42;2.13;;;1.27;;
75704;SDS011;70013;44.726;37.760;2023-05-10T13:36:43;10.90;;;1.48;;
75704;SDS011;70013;44.726;37.760;2023-05-10T13:37:46;5.47;;;1.48;;
75704;SDS011;70013;44.726;37.760;2023-05-10T13:38:48;6.47;;;1.25;;
75704;SDS011;70013;44.726;37.760;2023-05-10T13:39:49;2.85;;;1.20;;
75704;SDS011;70013;44.726;37.760;2023-05-10T13:40:51;3.10;;;1.35;;
75704;SDS011;70013;44.726;37.760;2023-05-10T13:41:54;6.18;;;1.30;;
75704;SDS011;70013;44.726;37.760;2023-05-10T13:42:55;5.78;;;1.40;;
75704;SDS011;70013;44.726;37.760;2023-05-10T13:43:57;4.20;;;1.42;;
75704;SDS011;70013;44.726;37.760;2023-05-10T13:44:59;11.45;;;1.30;;
75704;SDS011;70013;44.726;37.760;2023-05-10T13:46:02;4.38;;;1.40;;
75704;SDS011;70013;44.726;37.760;2023-05-10T13:47:04;4.00;;;1.30;;
75704;SDS011;70013;44.726;37.760;2023-05-10T13:48:07;3.33;;;1.20;;
75704;SDS011;70013;44.726;37.760;2023-05-10T13:49:09;8.93;;;1.27;;
75704;SDS011;70013;44.726;37.760;2023-05-10T13:50:11;6.75;;;1.50;;
75704;SDS011;70013;44.726;37.760;2023-05-10T13:51:13;6.80;;;1.40;;
75704;SDS011;70013;44.726;37.760;2023-05-10T13:52:14;7.22;;;1.60;;
75704;SDS011;70013;44.726;37.760;2023-05-10T13:53:16;11.05;;;1.77;;
75704;SDS011;70013;44.726;37.760;2023-05-10T13:54:18;9.50;;;1.42;;
75704;SDS011;70013;44.726;37.760;2023-05-10T13:55:21;4.65;;;1.45;;
75704;SDS011;70013;44.726;37.760;2023-05-10T13:56:23;5.35;;;1.52;;
75704;SDS011;70013;44.726;37.760;2023-05-10T13:57:24;8.23;;;1.80;;
75704;SDS011;70013;44.726;37.760;2023-05-10T13:58:26;12.93;;;2.22;;
75704;SDS011;70013;44.726;37.760;2023-05-10T13:59:28;6.90;;;1.40;;
75704;SDS011;70013;44.726;37.760;2023-05-10T14:00:30;5.82;;;1.60;;
75704;SDS011;70013;44.726;37.760;2023-05-10T14:01:32;6.15;;;1.40;;
75704;SDS011;70013;44.726;37.760;2023-05-10T14:02:33;7.53;;;1.60;;
75704;SDS011;70013;44.726;37.760;2023-05-10T14:03:35;5.10;;;1.63;;
75704;SDS011;70013;44.726;37.760;2023-05-10T14:04:36;8.63;;;1.77;;
75704;SDS011;70013;44.726;37.760;2023-05-10T14:05:38;7.78;;;1.70;;
75704;SDS011;70013;44.726;37.760;2023-05-10T14:06:40;3.03;;;1.60;;
75704;SDS011;70013;44.726;37.760;2023-05-10T14:07:42;6.47;;;1.40;;
75704;SDS011;70013;44.726;37.760;2023-05-10T14:08:44;9.27;;;1.92;;
75704;SDS011;70013;44.726;37.760;2023-05-10T14:09:46;7.97;;;1.88;;
75704;SDS011;70013;44.726;37.760;2023-05-10T14:10:48;4.82;;;1.50;;
75704;SDS011;70013;44.726;37.760;2023-05-10T14:11:50;4.78;;;1.50;;
75704;SDS011;70013;44.726;37.760;2023-05-10T14:12:52;5.70;;;1.70;;
75704;SDS011;70013;44.726;37.760;2023-05-10T14:13:53;10.55;;;1.80;;
75704;SDS011;70013;44.726;37.760;2023-05-10T14:14:55;8.00;;;1.92;;
75704;SDS011;70013;44.726;37.760;2023-05-10T14:15:57;4.90;;;1.55;;
75704;SDS011;70013;44.726;37.760;2023-05-10T14:17:01;6.07;;;1.73;;
75704;SDS011;70013;44.726;37.760;2023-05-10T14:18:03;7.72;;;1.55;;
75704;SDS011;70013;44.726;37.760;2023-05-10T14:19:04;3.33;;;1.60;;
75704;SDS011;70013;44.726;37.760;2023-05-10T14:20:06;5.35;;;1.40;;
75704;SDS011;70013;44.726;37.760;2023-05-10T14:21:08;6.18;;;1.58;;
75704;SDS011;70013;44.726;37.760;2023-05-10T14:22:10;4.72;;;1.70;;
75704;SDS011;70013;44.726;37.760;2023-05-10T14:23:11;3.13;;;1.33;;
75704;SDS011;70013;44.726;37.760;2023-05-10T14:24:14;4.05;;;1.42;;
75704;SDS011;70013;44.726;37.760;2023-05-10T14:25:15;6.97;;;1.48;;
75704;SDS011;70013;44.726;37.760;2023-05-10T14:26:17;7.15;;;1.63;;
75704;SDS011;70013;44.726;37.760;2023-05-10T14:27:19;3.38;;;1.40;;
75704;SDS011;70013;44.726;37.760;2023-05-10T14:28:20;3.15;;;1.30;;
75704;SDS011;70013;44.726;37.760;2023-05-10T14:29:23;6.80;;;1.40;;
75704;SDS011;70013;44.726;37.760;2023-05-10T14:30:25;13.40;;;1.40;;
75704;SDS011;70013;44.726;37.760;2023-05-10T14:31:26;3.78;;;1.30;;
75704;SDS011;70013;44.726;37.760;2023-05-10T14:32:29;7.93;;;1.40;;
75704;SDS011;70013;44.726;37.760;2023-05-10T14:33:32;7.78;;;1.40;;
75704;SDS011;70013;44.726;37.760;2023-05-10T14:34:34;4.65;;;1.55;;
75704;SDS011;70013;44.726;37.760;2023-05-10T14:35:36;6.20;;;1.60;;
75704;SDS011;70013;44.726;37.760;2023-05-10T14:36:38;6.32;;;1.55;;
75704;SDS011;70013;44.726;37.760;2023-05-10T14:37:40;12.50;;;1.60;;
75704;SDS011;70013;44.726;37.760;2023-05-10T14:38:42;9.98;;;1.55;;
75704;SDS011;70013;44.726;37.760;2023-05-10T14:39:43;6.25;;;1.60;;
75704;SDS011;70013;44.726;37.760;2023-05-10T14:40:50;7.70;;;1.60;;
75704;SDS011;70013;44.726;37.760;2023-05-10T14:41:51;5.72;;;1.60;;
75704;SDS011;70013;44.726;37.760;2023-05-10T14:42:53;4.32;;;1.63;;
75704;SDS011;70013;44.726;37.760;2023-05-10T14:43:55;7.38;;;1.52;;
75704;SDS011;70013;44.726;37.760;2023-05-10T14:44:59;4.85;;;1.40;;
75704;SDS011;70013;44.726;37.760;2023-05-10T14:46:06;8.88;;;1.50;;
75704;SDS011;70013;44.726;37.760;2023-05-10T14:47:08;3.45;;;1.50;;
75704;SDS011;70013;44.726;37.760;2023-05-10T14:48:10;6.93;;;1.80;;
75704;SDS011;70013;44.726;37.760;2023-05-10T14:49:21;13.10;;;1.65;;
75704;SDS011;70013;44.726;37.760;2023-05-10T14:50:23;11.95;;;1.50;;
75704;SDS011;70013;44.726;37.760;2023-05-10T14:51:25;6.85;;;1.70;;
75704;SDS011;70013;44.726;37.760;2023-05-10T14:52:27;3.22;;;1.50;;
75704;SDS011;70013;44.726;37.760;2023-05-10T14:53:28;4.40;;;1.60;;
75704;SDS011;70013;44.726;37.760;2023-05-10T14:54:30;7.50;;;1.70;;
75704;SDS011;70013;44.726;37.760;2023-05-10T14:55:34;2.63;;;1.23;;
75704;SDS011;70013;44.726;37.760;2023-05-10T14:56:36;4.57;;;1.58;;
75704;SDS011;70013;44.726;37.760;2023-05-10T14:57:38;4.28;;;1.40;;
75704;SDS011;70013;44.726;37.760;2023-05-10T14:58:40;4.15;;;1.50;;
75704;SDS011;70013;44.726;37.760;2023-05-10T14:59:41;8.43;;;1.80;;
75704;SDS011;70013;44.726;37.760;2023-05-10T15:00:43;4.68;;;1.40;;
75704;SDS011;70013;44.726;37.760;2023-05-10T15:01:45;7.38;;;1.70;;
75704;SDS011;70013;44.726;37.760;2023-05-10T15:02:47;6.90;;;1.58;;
75704;SDS011;70013;44.726;37.760;2023-05-10T15:03:49;3.65;;;1.40;;
75704;SDS011;70013;44.726;37.760;2023-05-10T15:04:51;5.35;;;1.10;;
75704;SDS011;70013;44.726;37.760;2023-05-10T15:05:53;4.93;;;1.52;;
75704;SDS011;70013;44.726;37.760;2023-05-10T15:06:54;5.35;;;1.45;;
75704;SDS011;70013;44.726;37.760;2023-05-10T15:08:00;4.10;;;1.38;;
75704;SDS011;70013;44.726;37.760;2023-05-10T15:09:06;9.10;;;1.52;;
75704;SDS011;70013;44.726;37.760;2023-05-10T15:10:08;5.13;;;1.98;;
75704;SDS011;70013;44.726;37.760;2023-05-10T15:11:10;5.63;;;1.30;;
75704;SDS011;70013;44.726;37.760;2023-05-10T15:12:12;2.90;;;1.30;;
75704;SDS011;70013;44.726;37.760;2023-05-10T15:13:13;6.07;;;1.42;;
75704;SDS011;70013;44.726;37.760;2023-05-10T15:14:18;7.20;;;1.50;;
75704;SDS011;70013;44.726;37.760;2023-05-10T15:15:19;5.10;;;1.38;;
75704;SDS011;70013;44.726;37.760;2023-05-10T15:16:21;3.75;;;1.20;;
75704;SDS011;70013;44.726;37.760;2023-05-10T15:17:23;7.25;;;1.40;;
75704;SDS011;70013;44.726;37.760;2023-05-10T15:18:27;14.18;;;1.80;;
75704;SDS011;70013;44.726;37.760;2023-05-10T15:19:28;10.18;;;1.70;;
75704;SDS011;70013;44.726;37.760;2023-05-10T15:20:30;10.88;;;1.58;;
75704;SDS011;70013;44.726;37.760;2023-05-10T15:21:32;9.73;;;1.35;;
75704;SDS011;70013;44.726;37.760;2023-05-10T15:22:39;10.77;;;1.80;;
75704;SDS011;70013;44.726;37.760;2023-05-10T15:23:42;12.18;;;1.77;;
75704;SDS011;70013;44.726;37.760;2023-05-10T15:24:44;9.52;;;1.60;;
75704;SDS011;70013;44.726;37.760;2023-05-10T15:25:46;7.40;;;1.50;;
75704;SDS011;70013;44.726;37.760;2023-05-10T15:26:48;9.88;;;1.75;;
75704;SDS011;70013;44.726;37.760;2023-05-10T15:27:49;6.85;;;1.55;;
75704;SDS011;70013;44.726;37.760;2023-05-10T15:28:51;7.15;;;1.50;;
75704;SDS011;70013;44.726;37.760;2023-05-10T15:29:53;6.32;;;1.30;;
75704;SDS011;70013;44.726;37.760;2023-05-10T15:30:56;4.72;;;1.30;;
75704;SDS011;70013;44.726;37.760;2023-05-10T15:31:57;8.73;;;2.03;;
75704;SDS011;70013;44.726;37.760;2023-05-10T15:32:59;5.28;;;1.48;;
75704;SDS011;70013;44.726;37.760;2023-05-10T15:34:01;5.20;;;1.50;;
75704;SDS011;70013;44.726;37.760;2023-05-10T15:35:06;5.85;;;1.25;;
75704;SDS011;70013;44.726;37.760;2023-05-10T15:36:11;4.68;;;1.75;;
75704;SDS011;70013;44.726;37.760;2023-05-10T15:37:12;6.00;;;1.70;;
75704;SDS011;70013;44.726;37.760;2023-05-10T15:38:14;6.93;;;1.65;;
75704;SDS011;70013;44.726;37.760;2023-05-10T15:39:16;4.65;;;1.48;;
75704;SDS011;70013;44.726;37.760;2023-05-10T15:40:17;4.57;;;1.45;;
75704;SDS011;70013;44.726;37.760;2023-05-10T15:41:19;4.57;;;1.38;;
75704;SDS011;70013;44.726;37.760;2023-05-10T15:42:21;5.93;;;1.58;;
75704;SDS011;70013;44.726;37.760;2023-05-10T15:44:24;9.32;;;1.85;;
75704;SDS011;70013;44.726;37.760;2023-05-10T15:45:31;4.22;;;1.90;;
75704;SDS011;70013;44.726;37.760;2023-05-10T15:46:33;8.93;;;1.80;;
75704;SDS011;70013;44.726;37.760;2023-05-10T15:47:39;7.55;;;2.00;;
75704;SDS011;70013;44.726;37.760;2023-05-10T15:48:41;8.50;;;1.90;;
75704;SDS011;70013;44.726;37.760;2023-05-10T15:49:43;4.30;;;1.65;;
75704;SDS011;70013;44.726;37.760;2023-05-10T15:50:45;18.42;;;4.32;;
75704;SDS011;70013;44.726;37.760;2023-05-10T15:51:46;17.52;;;3.95;;
75704;SDS011;70013;44.726;37.760;2023-05-10T15:52:48;20.38;;;4.30;;
75704;SDS011;70013;44.726;37.760;2023-05-10T15:53:50;22.13;;;4.57;;
75704;SDS011;70013;44.726;37.760;2023-05-10T15:54:52;26.13;;;4.50;;
75704;SDS011;70013;44.726;37.760;2023-05-10T15:55:54;18.90;;;4.90;;
75704;SDS011;70013;44.726;37.760;2023-05-10T15:56:55;24.02;;;5.05;;
75704;SDS011;70013;44.726;37.760;2023-05-10T15:57:57;201.13;;;39.15;;
75704;SDS011;70013;44.726;37.760;2023-05-10T15:58:58;93.90;;;27.38;;
75704;SDS011;70013;44.726;37.760;2023-05-10T16:00:00;59.63;;;12.50;;
75704;SDS011;70013;44.726;37.760;2023-05-10T16:01:13;36.33;;;7.82;;
75704;SDS011;70013;44.726;37.760;2023-05-10T16:02:14;26.33;;;5.93;;
75704;SDS011;70013;44.726;37.760;2023-05-10T16:03:17;18.60;;;4.95;;
75704;SDS011;70013;44.726;37.760;2023-05-10T16:04:19;21.80;;;5.15;;
75704;SDS011;70013;44.726;37.760;2023-05-10T16:05:21;27.98;;;6.25;;
75704;SDS011;70013;44.726;37.760;2023-05-10T16:06:22;30.80;;;8.52;;
75704;SDS011;70013;44.726;37.760;2023-05-10T16:07:24;16.40;;;5.28;;
75704;SDS011;70013;44.726;37.760;2023-05-10T16:08:29;12.40;;;4.00;;
75704;SDS011;70013;44.726;37.760;2023-05-10T16:09:30;15.68;;;3.65;;
75704;SDS011;70013;44.726;37.760;2023-05-10T16:10:32;13.65;;;4.13;;
75704;SDS011;70013;44.726;37.760;2023-05-10T16:11:34;18.75;;;3.78;;
75704;SDS011;70013;44.726;37.760;2023-05-10T16:12:35;15.15;;;3.22;;
75704;SDS011;70013;44.726;37.760;2023-05-10T16:13:37;15.77;;;3.80;;
75704;SDS011;70013;44.726;37.760;2023-05-10T16:14:39;9.93;;;3.00;;
75704;SDS011;70013;44.726;37.760;2023-05-10T16:15:41;14.20;;;3.58;;
75704;SDS011;70013;44.726;37.760;2023-05-10T16:16:43;11.40;;;3.72;;
75704;SDS011;70013;44.726;37.760;2023-05-10T16:17:46;12.40;;;3.50;;
75704;SDS011;70013;44.726;37.760;2023-05-10T16:18:47;9.27;;;3.55;;
75704;SDS011;70013;44.726;37.760;2023-05-10T16:19:49;10.93;;;3.53;;
75704;SDS011;70013;44.726;37.760;2023-05-10T16:20:51;10.95;;;3.08;;
75704;SDS011;70013;44.726;37.760;2023-05-10T16:21:53;9.65;;;3.20;;
75704;SDS011;70013;44.726;37.760;2023-05-10T16:22:55;9.82;;;3.83;;
75704;SDS011;70013;44.726;37.760;2023-05-10T16:23:57;12.73;;;4.97;;
75704;SDS011;70013;44.726;37.760;2023-05-10T16:24:59;16.63;;;6.80;;
75704;SDS011;70013;44.726;37.760;2023-05-10T16:26:01;21.75;;;10.20;;
75704;SDS011;70013;44.726;37.760;2023-05-10T16:27:03;21.27;;;7.60;;
75704;SDS011;70013;44.726;37.760;2023-05-10T16:28:04;14.27;;;6.25;;
75704;SDS011;70013;44.726;37.760;2023-05-10T16:29:07;17.25;;;5.95;;
75704;SDS011;70013;44.726;37.760;2023-05-10T16:30:09;16.33;;;5.47;;
75704;SDS011;70013;44.726;37.760;2023-05-10T16:31:11;15.88;;;4.30;;
75704;SDS011;70013;44.726;37.760;2023-05-10T16:32:12;13.68;;;4.60;;
75704;SDS011;70013;44.726;37.760;2023-05-10T16:33:14;11.75;;;4.00;;
75704;SDS011;70013;44.726;37.760;2023-05-10T16:34:16;15.43;;;4.60;;
75704;SDS011;70013;44.726;37.760;2023-05-10T16:35:20;12.43;;;3.95;;
75704;SDS011;70013;44.726;37.760;2023-05-10T16:36:23;11.82;;;4.03;;
75704;SDS011;70013;44.726;37.760;2023-05-10T16:37:25;25.00;;;6.45;;